createdAt,value
2017-06-30T00:02:00.357Z,16.00
2017-06-30T00:04:28.454Z,16.00
2017-06-30T00:06:56.551Z,16.00
2017-06-30T00:09:24.796Z,16.00
2017-06-30T00:11:52.895Z,16.10
2017-06-30T00:14:21.036Z,16.10
2017-06-30T00:16:49.121Z,16.10
2017-06-30T00:19:17.281Z,16.10
2017-06-30T00:21:45.372Z,16.20
2017-06-30T00:24:13.459Z,16.20
2017-06-30T00:26:41.621Z,16.20
2017-06-30T00:29:09.700Z,16.20
2017-06-30T00:31:37.804Z,16.30
2017-06-30T00:34:05.920Z,16.20
2017-06-30T00:36:34.150Z,16.20
2017-06-30T00:39:02.261Z,16.10
2017-06-30T00:41:30.340Z,16.00
2017-06-30T00:43:58.474Z,15.90
2017-06-30T00:46:26.568Z,15.90
2017-06-30T00:48:54.797Z,15.90
2017-06-30T00:51:22.894Z,15.80
2017-06-30T00:53:51.164Z,15.80
2017-06-30T00:56:19.288Z,15.80
2017-06-30T00:58:47.378Z,15.70
2017-06-30T01:01:15.489Z,15.70
2017-06-30T01:03:43.633Z,15.70
2017-06-30T01:06:11.721Z,15.70
2017-06-30T01:08:39.810Z,15.70
2017-06-30T01:11:08.052Z,15.70
2017-06-30T01:13:36.157Z,15.70
2017-06-30T01:16:04.884Z,15.70
2017-06-30T01:18:32.976Z,15.70
2017-06-30T01:21:01.107Z,15.60
2017-06-30T01:23:29.196Z,15.60
2017-06-30T01:25:57.296Z,15.60
2017-06-30T01:28:25.524Z,15.60
2017-06-30T01:30:53.620Z,15.60
2017-06-30T01:33:21.736Z,15.50
2017-06-30T01:35:49.828Z,15.60
2017-06-30T01:38:17.956Z,15.60
2017-06-30T01:40:46.043Z,15.70
2017-06-30T01:43:14.133Z,15.60
2017-06-30T01:45:42.376Z,15.60
2017-06-30T01:48:10.477Z,15.50
2017-06-30T01:50:38.586Z,15.50
2017-06-30T01:53:06.701Z,15.50
2017-06-30T01:55:34.800Z,15.50
2017-06-30T01:58:04.135Z,15.40
2017-06-30T02:00:32.228Z,15.50
2017-06-30T02:03:00.457Z,15.40
2017-06-30T02:05:28.544Z,15.30
2017-06-30T02:07:56.636Z,15.40
2017-06-30T02:10:24.876Z,15.40
2017-06-30T02:12:52.973Z,15.40
2017-06-30T02:15:21.092Z,15.40
2017-06-30T02:17:49.204Z,15.50
2017-06-30T02:20:17.342Z,15.50
2017-06-30T02:22:45.457Z,15.40
2017-06-30T02:25:13.549Z,15.40
2017-06-30T02:27:41.784Z,15.40
2017-06-30T02:30:09.885Z,15.40
2017-06-30T02:32:38.011Z,15.40
2017-06-30T02:35:06.121Z,15.40
2017-06-30T02:37:34.280Z,15.40
2017-06-30T02:40:02.370Z,15.40
2017-06-30T02:42:30.471Z,15.40
2017-06-30T02:44:58.591Z,15.50
2017-06-30T02:47:26.672Z,15.50
2017-06-30T02:49:54.789Z,15.60
2017-06-30T02:52:22.879Z,15.60
2017-06-30T02:54:50.980Z,15.70
2017-06-30T02:57:19.226Z,15.80
2017-06-30T02:59:47.319Z,15.90
2017-06-30T03:02:15.428Z,15.90
2017-06-30T03:04:43.555Z,15.90
2017-06-30T03:07:11.648Z,15.90
2017-06-30T03:09:39.768Z,15.80
2017-06-30T03:12:07.896Z,15.80
2017-06-30T03:14:35.998Z,15.90
2017-06-30T03:17:04.104Z,15.90
2017-06-30T03:19:32.353Z,15.80
2017-06-30T03:22:00.465Z,15.80
2017-06-30T03:24:28.553Z,15.80
2017-06-30T03:26:56.778Z,15.80
2017-06-30T03:29:24.871Z,15.80
2017-06-30T03:31:53.021Z,15.80
2017-06-30T03:34:21.112Z,15.80
2017-06-30T03:36:49.234Z,15.80
2017-06-30T03:39:17.328Z,15.90
2017-06-30T03:41:45.438Z,15.80
2017-06-30T03:44:13.577Z,15.90
2017-06-30T03:46:41.669Z,15.90
2017-06-30T03:49:09.752Z,15.90
2017-06-30T03:51:37.992Z,15.80
2017-06-30T03:54:06.082Z,15.70
2017-06-30T03:56:34.179Z,15.70
2017-06-30T03:59:02.350Z,15.70
2017-06-30T04:01:30.457Z,15.60
2017-06-30T04:03:58.612Z,15.60
2017-06-30T04:06:26.723Z,15.60
2017-06-30T04:08:54.804Z,15.60
2017-06-30T04:11:22.928Z,15.60
2017-06-30T04:13:51.024Z,15.70
2017-06-30T04:16:19.144Z,15.70
2017-06-30T04:18:47.228Z,15.70
2017-06-30T04:21:15.340Z,15.80
2017-06-30T04:23:43.594Z,15.70
2017-06-30T04:26:11.695Z,15.70
2017-06-30T04:28:39.779Z,15.80
2017-06-30T04:31:07.909Z,15.80
2017-06-30T04:33:36.002Z,15.80
2017-06-30T04:36:04.161Z,15.90
2017-06-30T04:38:32.268Z,15.90
2017-06-30T04:41:00.356Z,15.80
2017-06-30T04:43:28.463Z,15.90
2017-06-30T04:45:56.557Z,16.00
2017-06-30T04:48:24.684Z,16.00
2017-06-30T04:50:52.773Z,16.10
2017-06-30T04:53:20.870Z,16.10
2017-06-30T04:55:49.104Z,16.10
2017-06-30T04:58:17.201Z,16.20
2017-06-30T05:00:45.382Z,16.20
2017-06-30T05:03:13.497Z,16.30
2017-06-30T05:05:41.613Z,16.40
2017-06-30T05:08:09.729Z,16.40
2017-06-30T05:10:37.827Z,16.50
2017-06-30T05:13:06.070Z,16.50
2017-06-30T05:15:34.189Z,16.50
2017-06-30T05:18:02.293Z,16.50
2017-06-30T05:20:30.448Z,16.50
2017-06-30T05:22:58.569Z,16.40
2017-06-30T05:25:26.708Z,16.50
2017-06-30T05:27:54.823Z,16.50
2017-06-30T05:30:22.941Z,16.60
2017-06-30T05:32:51.104Z,16.60
2017-06-30T05:35:19.205Z,16.70
2017-06-30T05:37:47.455Z,16.60
2017-06-30T05:40:15.548Z,16.70
2017-06-30T05:42:43.635Z,16.60
2017-06-30T05:45:11.768Z,16.50
2017-06-30T05:47:39.859Z,16.40
2017-06-30T05:50:07.967Z,16.40
2017-06-30T05:52:36.104Z,16.40
2017-06-30T05:55:04.218Z,16.40
2017-06-30T05:57:32.308Z,16.40
2017-06-30T06:00:00.557Z,16.30
2017-06-30T06:02:28.670Z,16.30
2017-06-30T06:04:56.765Z,16.40
2017-06-30T06:07:24.921Z,16.50
2017-06-30T06:09:53.172Z,16.60
2017-06-30T06:12:21.262Z,16.60
2017-06-30T06:14:49.351Z,16.70
2017-06-30T06:17:17.494Z,16.80
2017-06-30T06:19:45.593Z,16.80
2017-06-30T06:22:13.680Z,16.80
2017-06-30T06:24:41.828Z,16.90
2017-06-30T06:27:09.925Z,16.80
2017-06-30T06:29:38.070Z,16.90
2017-06-30T06:32:06.192Z,16.90
2017-06-30T06:34:34.305Z,16.90
2017-06-30T06:37:02.425Z,17.00
2017-06-30T06:39:30.517Z,17.10
2017-06-30T06:41:58.681Z,17.20
2017-06-30T06:44:26.791Z,17.30
2017-06-30T06:46:58.126Z,17.30
2017-06-30T06:49:26.197Z,17.30
2017-06-30T06:51:54.301Z,17.40
2017-06-30T06:54:22.457Z,17.40
2017-06-30T06:56:50.554Z,17.50
2017-06-30T06:59:18.788Z,17.50
2017-06-30T07:01:46.932Z,17.60
2017-06-30T07:04:32.225Z,17.60
2017-06-30T07:07:00.384Z,17.70
2017-06-30T07:09:28.517Z,17.70
2017-06-30T07:11:56.636Z,17.80
2017-06-30T07:14:45.343Z,17.80
2017-06-30T07:17:13.587Z,17.80
2017-06-30T07:19:41.684Z,17.80
2017-06-30T07:22:09.817Z,17.90
2017-06-30T07:24:37.926Z,18.00
2017-06-30T07:27:06.030Z,18.10
2017-06-30T07:29:34.177Z,18.10
2017-06-30T07:32:09.801Z,18.30
2017-06-30T07:34:38.039Z,18.40
2017-06-30T07:37:18.793Z,18.50
2017-06-30T07:39:46.917Z,18.70
2017-06-30T07:42:18.221Z,18.70
2017-06-30T07:44:46.352Z,18.70
2017-06-30T07:47:18.140Z,18.80
2017-06-30T07:49:46.380Z,18.90
2017-06-30T07:52:14.466Z,18.90
2017-06-30T07:54:42.662Z,18.90
2017-06-30T07:57:10.760Z,18.90
2017-06-30T07:59:38.853Z,18.90
2017-06-30T08:02:07.003Z,18.80
2017-06-30T08:04:35.121Z,18.90
2017-06-30T08:07:03.389Z,19.00
2017-06-30T08:09:38.426Z,19.10
2017-06-30T08:12:10.236Z,19.20
2017-06-30T08:14:41.449Z,19.30
2017-06-30T08:17:16.650Z,19.20
2017-06-30T08:19:44.758Z,19.20
2017-06-30T08:22:12.890Z,19.30
2017-06-30T08:24:41.021Z,19.30
2017-06-30T08:27:09.138Z,19.40
2017-06-30T08:30:07.621Z,19.50
2017-06-30T08:32:35.753Z,19.50
2017-06-30T08:35:11.884Z,19.60
2017-06-30T08:37:39.993Z,19.70
2017-06-30T08:40:08.108Z,19.70
2017-06-30T08:42:36.258Z,19.70
2017-06-30T08:45:04.375Z,19.90
2017-06-30T08:47:32.495Z,19.90
2017-06-30T08:50:08.365Z,19.90
2017-06-30T08:52:43.621Z,19.90
2017-06-30T08:55:11.762Z,19.90
2017-06-30T08:57:39.913Z,20.00
2017-06-30T09:00:08.037Z,20.00
2017-06-30T09:02:39.245Z,20.00
2017-06-30T09:05:34.220Z,20.10
2017-06-30T09:08:02.336Z,20.10
2017-06-30T09:10:30.442Z,20.20
2017-06-30T09:12:58.644Z,20.30
2017-06-30T09:15:29.799Z,20.40
2017-06-30T09:17:57.917Z,20.50
2017-06-30T09:21:00.527Z,20.40
2017-06-30T09:23:28.708Z,20.50
2017-06-30T09:25:56.820Z,20.60
2017-06-30T09:28:24.966Z,20.70
2017-06-30T09:31:00.419Z,20.50
2017-06-30T09:33:32.117Z,20.50
2017-06-30T09:36:03.533Z,20.40
2017-06-30T09:38:31.688Z,20.60
2017-06-30T09:41:29.002Z,20.70
2017-06-30T09:44:02.026Z,20.90
2017-06-30T09:46:37.620Z,20.90
2017-06-30T09:49:13.886Z,20.80
2017-06-30T09:51:41.980Z,20.80
